International Virtual Aviation Organisation

Eastern Europe and Northern Asia MCD

 

Карточка аэропорта URKK

Внимание!
Информация на этой странице в стадии наполнения.
Если вы не увидели какой-то информации, или заметили неточность - пожалуйста сообщите нам!
Спасибо!
Команда RU-STAFF
Название аэропортаПашковский
Название аэропорта (англ.)Pashkovskiy
Превышение118 ft. (36 m.)
Координаты45°2.0820000000001', 39°10.218'
Высота перехода900m
Эшелон переходаFL050
Коды ответчика1030-1037
Зона ОрВДРостов-на-Дону РПИ (URRV)
Данные METARURKK 110230Z 35004MPS 330V070 9999 BKN035CB 07/05 Q1019 R23L/290060 NOSIG RMK QFE761
Проноз погоды (TAF)URKK 110153Z 1103/1203 02003G08MPS 9999 BKN020CB TEMPO 1103/1118 34003G08MPS -SHRA BKN016CB PROB40 1103/1118 -TSRA BECMG 1118/1120 22003G08MPS TEMPO 1118/1203 3100 -SHRA BR BKN016CB
NOTAMshow/hide NOTAM
AWOS   TABLE

Информация о ВПП

ВПП Длина ВПП (м.) Покрытие Курс ВПП Частота ILS
05L2200Асфальтобетон46 
23R2200Асфальтобетон226 
05C2400Цементобетон46 
05R3000Железобетон46 
23L3000Железобетон226 
23C3000Железобетон226111.3

Диспетчерские позиции

Позывной Наименование органа УВД Частота
URKK_APPКраснодар-Подход129.6
URKK_R_APPКраснодар-Круг121.3
URKK_TWRКраснодар-Вышка120.6
URKK_GNDКраснодар-Руление119.0



Спутниковое изображение